Time;durP1;ratioP1;P1;durP2;ratioP2;P2;SDS_P1;SDS_P2;PMS_P1;PMS_P2;Temp;Humidity;BMP_temperature;BMP_pressure;BME280_temperature;BME280_humidity;BME280_pressure;Samples;Min_cycle;Max_cycle;Signal;HPM_P1;HPM_P2
2023/01/21 00:00:40;;;;;;;30.03;20.07;;;-1.80;33.70;;;;;;6029954;23;20783;-69
2023/01/21 00:03:07;;;;;;;36.63;21.47;;;-1.80;33.90;;;;;;6031426;23;20456;-71
2023/01/21 00:05:34;;;;;;;34.20;20.30;;;-1.80;33.90;;;;;;6029182;23;20424;-73
2023/01/21 00:08:01;;;;;;;34.30;20.47;;;-1.90;33.90;;;;;;6028204;23;20466;-72
2023/01/21 00:10:29;;;;;;;32.40;19.40;;;-1.90;33.90;;;;;;6029948;23;20430;-72
2023/01/21 00:12:56;;;;;;;32.77;19.37;;;-1.90;33.80;;;;;;6028312;23;20439;-72
2023/01/21 00:15:22;;;;;;;34.67;19.17;;;-1.90;33.80;;;;;;6030185;23;20759;-72
2023/01/21 00:17:52;;;;;;;28.87;17.67;;;-2.00;33.80;;;;;;6028147;23;20488;-72
2023/01/21 00:20:19;;;;;;;32.70;18.57;;;-2.00;34.00;;;;;;6029464;23;20429;-73
2023/01/21 00:22:45;;;;;;;30.17;19.07;;;-2.00;34.20;;;;;;6029028;23;20740;-73
2023/01/21 00:25:12;;;;;;;33.30;20.30;;;-2.10;34.30;;;;;;6030859;23;20531;-73
2023/01/21 00:27:41;;;;;;;31.87;17.50;;;-2.10;34.40;;;;;;6039217;23;20431;-73
2023/01/21 00:30:09;;;;;;;34.97;18.67;;;-2.20;34.40;;;;;;6037936;23;20495;-66
2023/01/21 00:32:36;;;;;;;30.03;17.03;;;-2.20;34.50;;;;;;6060001;23;20444;-66
2023/01/21 00:35:03;;;;;;;29.13;19.10;;;-2.20;34.60;;;;;;6058962;23;20415;-67
2023/01/21 00:37:30;;;;;;;30.70;19.27;;;-2.20;34.60;;;;;;6059220;23;20427;-66
2023/01/21 00:39:57;;;;;;;31.23;17.40;;;-2.30;34.60;;;;;;6050222;23;20444;-67
2023/01/21 00:42:26;;;;;;;31.33;18.93;;;-2.30;34.70;;;;;;6031826;23;20424;-66
2023/01/21 00:44:56;;;;;;;32.63;18.60;;;-2.30;34.80;;;;;;6032538;23;20454;-66
2023/01/21 00:47:23;;;;;;;36.20;19.93;;;-2.30;34.80;;;;;;6033691;23;20420;-66
2023/01/21 00:49:50;;;;;;;34.37;19.80;;;-2.30;34.80;;;;;;6032663;23;21002;-66
2023/01/21 00:52:17;;;;;;;34.67;19.50;;;-2.30;34.90;;;;;;6032531;23;20476;-67
2023/01/21 00:54:44;;;;;;;39.70;19.33;;;-2.30;34.90;;;;;;6032988;23;20785;-66
2023/01/21 00:57:12;;;;;;;35.57;19.73;;;-2.30;34.90;;;;;;6033054;23;20421;-66
2023/01/21 00:59:39;;;;;;;38.50;19.97;;;-2.30;34.90;;;;;;6032996;23;20456;-66
2023/01/21 01:02:07;;;;;;;31.17;18.27;;;-2.30;34.90;;;;;;6030878;23;20486;-66
2023/01/21 01:04:34;;;;;;;33.77;19.33;;;-2.30;34.90;;;;;;6032396;23;20444;-66
2023/01/21 01:07:01;;;;;;;34.17;18.83;;;-2.30;34.90;;;;;;6032621;23;20415;-66
2023/01/21 01:09:28;;;;;;;31.43;18.43;;;-2.30;34.90;;;;;;6032955;23;21037;-65
2023/01/21 01:11:56;;;;;;;33.90;16.97;;;-2.30;35.00;;;;;;6031395;23;20420;-64
2023/01/21 01:14:23;;;;;;;39.33;20.53;;;-2.30;35.00;;;;;;6033381;23;20910;-65
2023/01/21 01:16:50;;;;;;;40.33;22.10;;;-2.20;35.00;;;;;;6031879;23;20420;-64
2023/01/21 01:19:18;;;;;;;45.00;23.33;;;-2.20;35.00;;;;;;6033760;23;20751;-65
2023/01/21 01:21:48;;;;;;;39.57;21.83;;;-2.20;35.00;;;;;;6032380;23;20945;-64
2023/01/21 01:24:16;;;;;;;44.43;20.93;;;-2.20;35.20;;;;;;6033570;23;20462;-64
2023/01/21 01:26:43;;;;;;;42.27;21.80;;;-2.20;35.20;;;;;;6030906;23;20519;-64
2023/01/21 01:29:12;;;;;;;44.93;24.90;;;-2.10;35.40;;;;;;6033169;23;20424;-64
2023/01/21 01:31:39;;;;;;;40.50;24.70;;;-2.10;35.50;;;;;;6030151;23;20504;-64
2023/01/21 01:34:06;;;;;;;51.23;26.27;;;-2.20;35.50;;;;;;6033262;23;20420;-64
2023/01/21 01:36:34;;;;;;;48.43;25.10;;;-2.10;35.50;;;;;;6031779;23;20420;-64
2023/01/21 01:39:01;;;;;;;54.50;25.90;;;-2.10;35.70;;;;;;6033685;23;20752;-64
2023/01/21 01:41:29;;;;;;;57.83;26.37;;;-2.10;35.60;;;;;;6031152;23;21234;-64
2023/01/21 01:43:58;;;;;;;50.23;24.30;;;-2.00;35.70;;;;;;6032575;23;20448;-64
2023/01/21 01:46:27;;;;;;;45.70;21.60;;;-2.00;35.80;;;;;;6030513;23;20427;-64
2023/01/21 01:49:01;;;;;;;52.70;23.67;;;-2.00;35.80;;;;;;6033043;23;20424;-65
2023/01/21 01:51:39;;;;;;;50.67;24.40;;;-2.00;35.90;;;;;;6032276;23;20412;-65
2023/01/21 01:54:07;;;;;;;48.27;22.77;;;-2.10;36.00;;;;;;6031628;23;20407;-65
2023/01/21 01:56:37;;;;;;;49.13;21.00;;;-2.10;36.00;;;;;;6032800;23;20545;-65
2023/01/21 01:59:04;;;;;;;47.10;22.70;;;-2.00;36.10;;;;;;6031988;23;20420;-66
2023/01/21 02:01:31;;;;;;;44.43;23.30;;;-2.00;36.00;;;;;;6031412;23;20440;-65
2023/01/21 02:03:58;;;;;;;41.83;20.80;;;-2.10;36.20;;;;;;6031116;23;20534;-65
2023/01/21 02:06:26;;;;;;;45.23;21.23;;;-2.10;36.20;;;;;;6033794;23;20419;-66
2023/01/21 02:08:55;;;;;;;39.33;21.37;;;-2.10;36.20;;;;;;6034000;23;20419;-65
2023/01/21 02:11:22;;;;;;;54.13;23.17;;;-2.10;36.30;;;;;;6031674;23;20478;-65
2023/01/21 02:13:53;;;;;;;43.23;22.20;;;-2.10;36.40;;;;;;6034082;23;20928;-66
2023/01/21 02:16:45;;;;;;;45.17;21.57;;;-2.10;36.60;;;;;;6034875;23;20720;-65
2023/01/21 02:19:43;;;;;;;55.77;22.80;;;-2.20;36.70;;;;;;6035447;23;20408;-66
2023/01/21 02:22:19;;;;;;;41.53;20.53;;;-2.20;37.30;;;;;;6032241;23;20449;-65
2023/01/21 02:25:23;;;;;;;42.50;22.53;;;-2.20;36.70;;;;;;6032806;23;20989;-67
2023/01/21 02:28:02;;;;;;;45.87;22.07;;;-2.20;36.80;;;;;;6034361;23;20439;-65
2023/01/21 02:30:55;;;;;;;58.60;23.37;;;-2.20;36.70;;;;;;6033359;23;20459;-64
2023/01/21 02:33:43;;;;;;;55.43;26.60;;;-2.30;36.90;;;;;;6032737;23;20412;-65
2023/01/21 02:36:52;;;;;;;55.20;22.93;;;-2.30;37.00;;;;;;6033194;23;20428;-65
2023/01/21 02:39:29;;;;;;;45.00;22.53;;;-2.30;37.10;;;;;;5947110;24;20438;-65
2023/01/21 02:42:03;;;;;;;49.63;27.03;;;-2.30;37.10;;;;;;6024737;23;20985;-66
2023/01/21 02:44:35;;;;;;;49.77;24.30;;;-2.30;37.20;;;;;;6034235;23;20910;-65
2023/01/21 02:47:10;;;;;;;50.87;22.77;;;-2.30;37.10;;;;;;6033136;23;20408;-65
2023/01/21 02:49:41;;;;;;;48.40;24.10;;;-2.30;37.30;;;;;;6034571;23;20450;-65
2023/01/21 02:52:08;;;;;;;37.23;20.90;;;-2.30;37.20;;;;;;6032378;23;20444;-64
2023/01/21 02:55:02;;;;;;;55.27;24.40;;;-2.30;37.10;;;;;;6034618;23;20455;-65
2023/01/21 02:57:37;;;;;;;49.10;23.83;;;-2.30;37.20;;;;;;5999882;23;20427;-65
2023/01/21 03:00:09;;;;;;;43.37;23.10;;;-2.20;36.90;;;;;;6034130;23;20491;-63
2023/01/21 03:02:56;;;;;;;52.63;23.73;;;-2.20;36.90;;;;;;6031905;23;20409;-64
2023/01/21 03:05:34;;;;;;;40.50;21.60;;;-2.20;36.70;;;;;;6032159;23;20941;-64
2023/01/21 03:08:11;;;;;;;51.90;22.97;;;-2.20;36.60;;;;;;6033464;23;20404;-63
2023/01/21 03:10:42;;;;;;;42.00;21.27;;;-2.10;36.50;;;;;;6032109;23;20463;-64
2023/01/21 03:18:59;;;;;;;40.33;19.57;;;-2.10;35.50;;;;;;6033518;23;20407;-64
2023/01/21 03:21:30;;;;;;;45.83;20.97;;;-2.00;35.20;;;;;;6033594;23;20420;-64
2023/01/21 03:23:59;;;;;;;42.33;21.77;;;-2.10;35.20;;;;;;6031251;23;20483;-63
2023/01/21 03:26:30;;;;;;;41.70;22.40;;;-2.10;35.00;;;;;;6033790;23;20435;-63
2023/01/21 03:28:59;;;;;;;40.80;22.07;;;-2.10;34.90;;;;;;6042180;23;20734;-63
2023/01/21 03:31:36;;;;;;;46.70;23.90;;;-2.10;34.80;;;;;;6033600;23;20440;-63
2023/01/21 03:34:06;;;;;;;55.57;24.13;;;-2.10;34.60;;;;;;6031326;23;20432;-64
2023/01/21 03:36:40;;;;;;;48.27;23.13;;;-2.20;34.60;;;;;;6033845;23;21323;-63
2023/01/21 03:39:13;;;;;;;47.13;23.37;;;-2.10;34.70;;;;;;6033344;23;20404;-64
2023/01/21 03:41:40;;;;;;;47.50;21.60;;;-2.20;34.60;;;;;;6033904;23;20405;-63
2023/01/21 03:44:07;;;;;;;37.70;19.80;;;-2.20;34.30;;;;;;6033595;23;20420;-63
2023/01/21 03:46:40;;;;;;;40.77;19.20;;;-2.20;34.00;;;;;;6033139;23;20942;-63
2023/01/21 03:49:13;;;;;;;45.47;23.00;;;-2.20;33.50;;;;;;6034199;23;20416;-63
2023/01/21 03:51:48;;;;;;;51.20;19.20;;;-2.20;33.20;;;;;;6031597;23;20408;-63
2023/01/21 03:54:15;;;;;;;42.13;19.30;;;-2.30;33.00;;;;;;6033963;23;20407;-63
2023/01/21 03:56:41;;;;;;;40.37;20.60;;;-2.30;33.10;;;;;;6031329;23;20427;-63
2023/01/21 03:59:08;;;;;;;42.40;19.17;;;-2.40;33.20;;;;;;6033838;23;20425;-63
2023/01/21 04:01:35;;;;;;;40.00;20.00;;;-2.40;33.00;;;;;;6031980;23;20440;-64
2023/01/21 04:04:01;;;;;;;41.67;20.67;;;-2.50;33.00;;;;;;6034146;23;20420;-64
2023/01/21 04:06:28;;;;;;;48.83;20.07;;;-2.60;32.60;;;;;;6032230;23;20420;-64
2023/01/21 04:08:57;;;;;;;40.30;18.60;;;-2.60;32.60;;;;;;6033485;23;20462;-66
2023/01/21 04:11:23;;;;;;;39.10;20.03;;;-2.70;32.50;;;;;;6033174;23;20943;-64
2023/01/21 04:13:50;;;;;;;37.30;19.53;;;-2.70;32.50;;;;;;6033198;23;20690;-65
2023/01/21 04:16:17;;;;;;;44.03;19.53;;;-2.70;32.30;;;;;;6032644;23;20416;-66
2023/01/21 04:18:44;;;;;;;38.83;18.93;;;-2.80;32.20;;;;;;6033398;23;20425;-64
2023/01/21 04:21:11;;;;;;;36.57;19.13;;;-2.80;32.30;;;;;;6032297;23;20440;-66
2023/01/21 04:23:37;;;;;;;46.50;21.80;;;-2.80;32.10;;;;;;6033643;23;20427;-64
2023/01/21 04:26:06;;;;;;;37.23;19.17;;;-2.90;32.20;;;;;;6032804;23;20451;-63
2023/01/21 04:28:33;;;;;;;41.10;19.00;;;-2.90;32.40;;;;;;6032795;23;20420;-64
2023/01/21 04:31:00;;;;;;;37.87;19.80;;;-2.90;32.50;;;;;;6032521;23;20452;-64
2023/01/21 04:33:26;;;;;;;44.93;19.90;;;-3.10;32.60;;;;;;6033491;23;20426;-65
2023/01/21 04:35:58;;;;;;;40.37;20.07;;;-3.10;32.70;;;;;;6029609;23;20427;-64
2023/01/21 04:38:25;;;;;;;39.97;20.80;;;-3.20;32.80;;;;;;6033436;23;20443;-64
2023/01/21 04:40:52;;;;;;;42.33;21.63;;;-3.20;32.90;;;;;;6030943;23;20962;-65
2023/01/21 04:43:20;;;;;;;46.93;20.57;;;-3.20;33.10;;;;;;6032187;23;20853;-63
2023/01/21 04:45:48;;;;;;;34.40;18.23;;;-3.30;33.10;;;;;;6031446;23;20448;-65
2023/01/21 04:48:15;;;;;;;36.40;19.57;;;-3.30;33.10;;;;;;6032786;23;20420;-62
2023/01/21 04:50:42;;;;;;;42.40;20.10;;;-3.40;33.10;;;;;;6031904;23;20436;-63
2023/01/21 04:53:09;;;;;;;42.47;20.03;;;-3.40;33.30;;;;;;6030698;23;20424;-66
2023/01/21 04:55:36;;;;;;;45.50;20.60;;;-3.40;33.40;;;;;;6031550;23;20513;-63
2023/01/21 04:58:03;;;;;;;41.80;19.13;;;-3.40;33.40;;;;;;6032347;23;20426;-63
2023/01/21 05:00:31;;;;;;;43.53;19.40;;;-3.50;33.50;;;;;;6032103;23;20440;-65
2023/01/21 05:02:57;;;;;;;41.97;19.40;;;-3.50;33.60;;;;;;6033576;23;20427;-65
2023/01/21 05:05:24;;;;;;;37.87;20.57;;;-3.50;33.60;;;;;;6030503;23;20451;-65
2023/01/21 05:07:52;;;;;;;37.73;18.17;;;-3.50;33.60;;;;;;6033326;23;20435;-65
2023/01/21 05:10:20;;;;;;;40.20;19.57;;;-3.50;33.70;;;;;;6033128;23;20448;-64
2023/01/21 05:12:47;;;;;;;38.77;19.27;;;-3.50;33.70;;;;;;6032256;23;20443;-65
2023/01/21 05:15:14;;;;;;;43.60;20.33;;;-3.50;33.80;;;;;;6032389;23;20416;-65
2023/01/21 05:17:42;;;;;;;37.33;20.27;;;-3.50;33.80;;;;;;6033002;23;20451;-66
2023/01/21 05:20:12;;;;;;;40.37;17.60;;;-3.10;34.00;;;;;;6033260;23;20581;-66
2023/01/21 05:22:39;;;;;;;40.90;18.50;;;-3.50;33.90;;;;;;6033054;23;20421;-66
2023/01/21 05:25:06;;;;;;;36.43;18.20;;;-3.50;33.90;;;;;;6030491;23;21022;-65
2023/01/21 05:27:33;;;;;;;45.30;18.70;;;-3.40;33.90;;;;;;6032161;23;21046;-65
2023/01/21 05:30:00;;;;;;;38.63;20.23;;;-3.40;33.90;;;;;;6033042;23;20452;-65
2023/01/21 05:32:26;;;;;;;37.90;17.87;;;-3.40;33.90;;;;;;6031823;23;20505;-65
2023/01/21 05:34:54;;;;;;;38.03;19.20;;;-3.30;34.00;;;;;;6032713;23;20416;-64
2023/01/21 05:37:21;;;;;;;34.87;17.50;;;-3.30;34.10;;;;;;6032345;23;20427;-65
2023/01/21 05:39:48;;;;;;;37.83;17.80;;;-3.30;34.10;;;;;;6034621;23;20451;-65
2023/01/21 05:42:15;;;;;;;45.57;21.00;;;-3.30;34.00;;;;;;6035042;23;20420;-66
2023/01/21 05:44:41;;;;;;;44.30;20.00;;;-3.20;34.10;;;;;;6035440;23;20431;-65
2023/01/21 05:47:08;;;;;;;40.60;19.33;;;-3.30;34.20;;;;;;6034912;23;20428;-65
2023/01/21 05:49:35;;;;;;;37.40;18.67;;;-3.10;34.20;;;;;;6034805;23;20451;-65
2023/01/21 05:52:03;;;;;;;38.87;20.00;;;-3.30;34.10;;;;;;6034737;23;20427;-65
2023/01/21 05:54:30;;;;;;;39.83;20.70;;;-3.30;34.00;;;;;;6034381;23;20492;-65
2023/01/21 05:56:56;;;;;;;35.63;19.00;;;-3.30;34.00;;;;;;6035154;23;20424;-68
2023/01/21 05:59:23;;;;;;;41.93;21.27;;;-3.30;34.10;;;;;;6032773;23;20946;-65
2023/01/21 06:01:50;;;;;;;40.63;22.53;;;-3.30;34.10;;;;;;6033885;23;20448;-65
2023/01/21 06:04:17;;;;;;;40.73;20.30;;;-3.30;34.00;;;;;;6032004;23;20427;-65
2023/01/21 06:06:43;;;;;;;35.20;20.53;;;-3.30;33.90;;;;;;6034853;23;20498;-66
2023/01/21 06:09:11;;;;;;;39.63;21.70;;;-3.30;33.80;;;;;;6032506;23;20428;-66
2023/01/21 06:11:38;;;;;;;38.70;23.83;;;-3.30;33.80;;;;;;6033072;23;20468;-65
2023/01/21 06:14:05;;;;;;;39.43;22.80;;;-3.30;33.90;;;;;;6035056;23;20420;-65
2023/01/21 06:16:31;;;;;;;36.57;20.93;;;-3.20;33.90;;;;;;6034628;23;20428;-65
2023/01/21 06:18:59;;;;;;;37.00;18.97;;;-3.20;33.90;;;;;;6034718;23;20423;-65
2023/01/21 06:21:25;;;;;;;41.67;20.40;;;-3.20;33.80;;;;;;6034513;23;20750;-66
2023/01/21 06:23:52;;;;;;;37.03;18.53;;;-3.10;33.80;;;;;;6034999;23;20424;-65
2023/01/21 06:26:20;;;;;;;37.70;18.60;;;-2.60;33.90;;;;;;6034048;23;20451;-65
2023/01/21 06:28:47;;;;;;;34.57;18.27;;;-3.00;33.70;;;;;;6033187;23;20419;-66
2023/01/21 06:31:13;;;;;;;33.83;17.40;;;-2.90;33.60;;;;;;6032924;23;20455;-65
2023/01/21 06:33:40;;;;;;;36.57;18.03;;;-3.00;33.60;;;;;;6027957;23;20438;-67
2023/01/21 06:36:08;;;;;;;34.23;17.60;;;-2.80;33.60;;;;;;6034655;23;20416;-65
2023/01/21 06:38:36;;;;;;;32.83;18.30;;;-2.90;33.70;;;;;;6032620;23;20424;-65
2023/01/21 06:41:03;;;;;;;37.90;20.27;;;-2.80;33.60;;;;;;6032795;23;20499;-65
2023/01/21 06:43:31;;;;;;;46.23;23.27;;;-2.80;33.70;;;;;;6034479;23;20427;-65
2023/01/21 06:45:58;;;;;;;37.30;18.50;;;-2.70;33.70;;;;;;6034666;23;20806;-64
2023/01/21 06:48:24;;;;;;;36.73;18.93;;;-2.60;33.70;;;;;;6034277;23;20420;-65
2023/01/21 06:50:51;;;;;;;29.87;15.87;;;-2.60;33.80;;;;;;6033945;23;20454;-65
2023/01/21 06:53:18;;;;;;;28.00;15.80;;;-2.50;33.90;;;;;;6033530;23;20421;-65
2023/01/21 06:55:46;;;;;;;28.73;15.70;;;-2.40;33.90;;;;;;6034001;23;20420;-65
2023/01/21 06:58:13;;;;;;;38.03;17.43;;;-2.40;33.90;;;;;;6033314;23;21055;-64
2023/01/21 07:00:41;;;;;;;28.17;16.13;;;-2.30;34.00;;;;;;6033398;23;20440;-65
2023/01/21 07:03:08;;;;;;;28.00;15.53;;;-2.30;34.00;;;;;;6033713;23;20426;-65
2023/01/21 07:05:35;;;;;;;31.40;15.97;;;-2.20;34.10;;;;;;6033633;23;20471;-65
2023/01/21 07:08:01;;;;;;;31.00;17.27;;;-2.20;34.20;;;;;;6033513;23;20930;-65
2023/01/21 07:10:28;;;;;;;29.10;16.00;;;-2.10;34.00;;;;;;6032989;23;20447;-64
2023/01/21 07:12:55;;;;;;;30.60;16.50;;;-2.00;34.10;;;;;;6034776;23;20427;-63
2023/01/21 07:15:22;;;;;;;33.43;17.67;;;-2.00;34.20;;;;;;6033557;23;20792;-66
2023/01/21 07:17:51;;;;;;;27.67;14.67;;;-2.00;34.10;;;;;;6033070;23;20421;-67
2023/01/21 07:20:18;;;;;;;33.13;15.67;;;-1.90;34.60;;;;;;6032765;23;20440;-67
2023/01/21 07:22:44;;;;;;;27.60;15.83;;;-1.90;34.40;;;;;;6031655;23;20424;-63
2023/01/21 07:25:11;;;;;;;31.27;16.10;;;-1.90;34.20;;;;;;6030189;23;20416;-63
2023/01/21 07:27:38;;;;;;;24.50;14.43;;;-1.80;34.20;;;;;;6031170;23;20451;-67
2023/01/21 07:30:06;;;;;;;26.33;14.40;;;-1.80;34.20;;;;;;6031108;23;20474;-68
2023/01/21 07:32:32;;;;;;;31.83;16.80;;;-1.70;34.30;;;;;;6033236;23;20440;-67
2023/01/21 07:35:00;;;;;;;32.97;15.80;;;-1.70;34.30;;;;;;6033903;23;20420;-67
2023/01/21 07:37:27;;;;;;;29.67;15.77;;;-1.60;34.40;;;;;;6034001;23;20420;-67
2023/01/21 07:39:54;;;;;;;31.70;17.00;;;-1.50;34.50;;;;;;6032916;23;20448;-69
2023/01/21 07:42:21;;;;;;;31.90;14.87;;;-1.40;34.60;;;;;;6031318;23;21062;-67
2023/01/21 07:44:48;;;;;;;31.60;17.43;;;-1.40;34.50;;;;;;6034090;23;20700;-67
2023/01/21 07:47:14;;;;;;;29.90;14.83;;;-1.30;34.60;;;;;;6031722;23;20950;-67
2023/01/21 07:49:41;;;;;;;33.53;17.23;;;-1.20;34.40;;;;;;6032963;23;21130;-67
2023/01/21 07:52:09;;;;;;;37.80;17.90;;;-1.20;34.40;;;;;;6032994;23;20421;-67
2023/01/21 07:54:36;;;;;;;30.70;16.30;;;-1.10;34.50;;;;;;6032167;23;20420;-66
2023/01/21 07:57:03;;;;;;;29.33;13.37;;;-1.00;34.10;;;;;;6030664;23;21190;-67
2023/01/21 07:59:30;;;;;;;27.77;14.57;;;-1.00;34.00;;;;;;6032405;23;20440;-67
2023/01/21 08:01:57;;;;;;;28.03;14.80;;;-0.90;34.00;;;;;;6031172;23;20444;-66
2023/01/21 08:04:24;;;;;;;29.67;16.07;;;-0.90;33.90;;;;;;6030842;23;20424;-67
2023/01/21 08:06:55;;;;;;;28.83;15.00;;;-0.50;34.10;;;;;;6032455;23;20439;-67
2023/01/21 08:09:23;;;;;;;26.57;15.17;;;-0.80;33.90;;;;;;6033087;23;20957;-66
2023/01/21 08:11:51;;;;;;;29.63;15.30;;;-0.70;33.80;;;;;;6031574;23;20427;-66
2023/01/21 08:14:18;;;;;;;31.23;16.40;;;-0.70;33.80;;;;;;6033123;23;20535;-66
2023/01/21 08:16:44;;;;;;;28.77;16.40;;;-0.60;33.60;;;;;;6033589;23;20423;-67
2023/01/21 08:19:11;;;;;;;34.73;16.83;;;-0.60;33.50;;;;;;6030292;23;20886;-67
2023/01/21 08:21:38;;;;;;;34.97;15.83;;;-0.50;33.50;;;;;;6031715;23;20424;-66
2023/01/21 08:24:05;;;;;;;34.00;16.43;;;-0.40;33.20;;;;;;6033723;23;20427;-67
2023/01/21 08:26:33;;;;;;;28.63;16.57;;;-0.40;33.00;;;;;;6032581;23;20448;-66
2023/01/21 08:29:00;;;;;;;30.67;16.50;;;-0.30;33.00;;;;;;6033274;23;20913;-67
2023/01/21 08:31:27;;;;;;;32.77;17.17;;;-0.20;32.90;;;;;;6030635;23;20444;-66
2023/01/21 08:33:54;;;;;;;28.37;19.17;;;-0.10;32.90;;;;;;6032849;23;20424;-66
2023/01/21 08:36:20;;;;;;;30.87;15.50;;;0.00;32.80;;;;;;6032739;23;20941;-67
2023/01/21 08:38:47;;;;;;;31.30;16.30;;;0.00;32.70;;;;;;6032678;23;20431;-67
2023/01/21 08:41:14;;;;;;;29.97;16.23;;;0.10;32.30;;;;;;6028817;23;20447;-67
2023/01/21 08:43:42;;;;;;;32.60;17.23;;;0.20;32.40;;;;;;6032726;23;20424;-67
2023/01/21 08:46:08;;;;;;;31.40;15.70;;;0.20;32.40;;;;;;6030210;23;20447;-67
2023/01/21 08:48:37;;;;;;;28.93;14.93;;;0.20;32.40;;;;;;6032928;23;20427;-67
2023/01/21 08:51:04;;;;;;;26.07;16.57;;;0.30;33.10;;;;;;6031340;23;20989;-67
2023/01/21 08:53:31;;;;;;;28.73;15.93;;;0.30;32.40;;;;;;6032400;23;20420;-67
2023/01/21 08:56:00;;;;;;;26.30;14.57;;;0.40;32.40;;;;;;6032575;23;20487;-67
2023/01/21 08:58:26;;;;;;;31.63;17.40;;;0.50;32.60;;;;;;6032374;23;20424;-67
2023/01/21 09:00:54;;;;;;;28.87;13.63;;;0.60;32.70;;;;;;6028751;23;20455;-67
2023/01/21 09:03:21;;;;;;;28.27;15.33;;;0.70;33.20;;;;;;6032240;23;20926;-64
2023/01/21 09:05:50;;;;;;;26.70;14.40;;;0.80;32.30;;;;;;6032972;23;20796;-69
2023/01/21 09:08:17;;;;;;;35.87;17.27;;;0.90;32.20;;;;;;6024874;23;20537;-64
2023/01/21 09:11:02;;;;;;;31.60;17.10;;;1.00;32.00;;;;;;6028091;23;20451;-64
2023/01/21 09:13:29;;;;;;;25.50;14.70;;;1.00;32.10;;;;;;6033437;23;20415;-68
2023/01/21 09:15:58;;;;;;;32.77;16.60;;;1.10;31.80;;;;;;6034438;23;20416;-70
2023/01/21 09:18:24;;;;;;;32.17;17.37;;;1.10;31.70;;;;;;6034300;23;20420;-69
2023/01/21 09:20:51;;;;;;;34.60;16.30;;;1.10;31.80;;;;;;6033009;23;20956;-76
2023/01/21 09:23:24;;;;;;;34.57;18.50;;;1.20;31.60;;;;;;6033386;23;20762;-67
2023/01/21 09:25:51;;;;;;;32.20;17.80;;;1.20;31.50;;;;;;6034142;23;20408;-64
2023/01/21 09:28:18;;;;;;;34.57;18.47;;;1.20;31.50;;;;;;6034490;23;20427;-66
2023/01/21 09:30:45;;;;;;;28.20;16.40;;;1.20;31.40;;;;;;6036265;23;20432;-67
2023/01/21 09:33:15;;;;;;;31.20;17.93;;;1.20;31.40;;;;;;6031041;23;20439;-69
2023/01/21 09:35:43;;;;;;;36.33;18.10;;;1.20;31.30;;;;;;6032887;23;20428;-69
2023/01/21 09:38:11;;;;;;;34.73;19.20;;;1.20;31.40;;;;;;6034882;23;20480;-68
2023/01/21 09:40:43;;;;;;;33.30;19.70;;;1.20;31.40;;;;;;6033171;23;20443;-72
2023/01/21 09:43:17;;;;;;;33.23;16.70;;;1.20;31.50;;;;;;6034609;23;20411;-64
2023/01/21 09:45:46;;;;;;;30.80;16.90;;;1.20;31.50;;;;;;6033853;23;20732;-70
2023/01/21 09:48:27;;;;;;;28.47;15.80;;;1.20;31.30;;;;;;6034858;23;20727;-76
2023/01/21 09:50:54;;;;;;;29.37;16.10;;;1.20;31.30;;;;;;6032702;23;20444;-68
2023/01/21 09:53:28;;;;;;;28.43;14.30;;;1.20;31.10;;;;;;6033325;23;21220;-75
2023/01/21 09:56:00;;;;;;;27.23;15.60;;;1.20;31.30;;;;;;6033123;23;20472;-78
2023/01/21 09:58:33;;;;;;;29.17;16.73;;;1.20;31.40;;;;;;6031479;23;20404;-78
2023/01/21 10:01:05;;;;;;;28.80;16.43;;;1.20;31.50;;;;;;6033390;23;20459;-78
2023/01/21 10:03:42;;;;;;;27.97;16.10;;;1.30;31.30;;;;;;6031589;23;20750;-78
2023/01/21 10:06:30;;;;;;;34.10;17.57;;;1.30;31.20;;;;;;6033209;23;20435;-69
2023/01/21 10:09:41;;;;;;;27.10;16.20;;;1.30;32.00;;;;;;6033171;23;20491;-67
2023/01/21 10:12:44;;;;;;;31.20;17.10;;;1.20;31.30;;;;;;6029738;23;20938;-79
2023/01/21 10:15:41;;;;;;;34.70;15.90;;;1.20;31.50;;;;;;6018899;23;20430;-74
2023/01/21 10:18:11;;;;;;;27.47;15.37;;;1.20;31.60;;;;;;6033192;23;20411;-71
2023/01/21 10:20:45;;;;;;;27.87;16.10;;;1.20;31.50;;;;;;6032254;23;20478;-72
2023/01/21 10:23:17;;;;;;;31.50;15.13;;;1.20;31.70;;;;;;6032272;23;20452;-74
2023/01/21 10:25:47;;;;;;;28.97;15.20;;;1.20;31.80;;;;;;6031748;23;20425;-74
2023/01/21 10:28:19;;;;;;;25.93;15.47;;;1.20;31.70;;;;;;6035556;23;20450;-68
2023/01/21 10:30:50;;;;;;;34.73;15.53;;;1.30;31.20;;;;;;6034224;23;20443;-66
2023/01/21 10:33:19;;;;;;;25.33;14.20;;;1.30;31.00;;;;;;6035259;23;20906;-67
2023/01/21 10:36:03;;;;;;;28.67;14.80;;;1.30;30.80;;;;;;6035370;23;20427;-62
2023/01/21 10:38:40;;;;;;;26.47;14.47;;;1.30;30.90;;;;;;6033367;23;20740;-63
2023/01/21 10:41:26;;;;;;;28.77;15.70;;;1.40;31.00;;;;;;6034838;23;20440;-67
2023/01/21 10:44:02;;;;;;;30.63;14.23;;;1.40;31.10;;;;;;6035081;23;20408;-66
2023/01/21 10:46:37;;;;;;;26.33;14.67;;;1.50;30.90;;;;;;6034594;23;20436;-66
2023/01/21 10:49:19;;;;;;;28.00;15.30;;;1.50;30.80;;;;;;6035437;23;20404;-64
2023/01/21 10:51:52;;;;;;;29.60;13.80;;;1.50;30.50;;;;;;6035719;23;20427;-64
2023/01/21 10:54:26;;;;;;;28.87;13.60;;;1.50;30.60;;;;;;6033927;23;20491;-62
2023/01/21 10:57:00;;;;;;;29.43;13.90;;;1.60;30.40;;;;;;6035816;23;20404;-66
2023/01/21 10:59:31;;;;;;;22.70;12.97;;;1.60;30.30;;;;;;6033048;23;20444;-61
2023/01/21 11:02:11;;;;;;;24.27;13.90;;;1.60;30.20;;;;;;6034734;23;20440;-64
2023/01/21 11:04:40;;;;;;;21.20;12.20;;;1.60;30.00;;;;;;6034978;23;20404;-67
2023/01/21 11:07:11;;;;;;;25.70;13.40;;;1.60;29.50;;;;;;6034515;23;20444;-64
2023/01/21 11:09:40;;;;;;;23.77;12.97;;;1.60;29.70;;;;;;6035257;23;20444;-69
2023/01/21 11:12:18;;;;;;;30.57;14.53;;;1.60;29.20;;;;;;6034985;23;20420;-62
2023/01/21 11:14:48;;;;;;;22.30;13.03;;;1.50;29.00;;;;;;6034623;23;20431;-61
2023/01/21 11:17:29;;;;;;;22.57;11.90;;;1.60;29.00;;;;;;6034886;23;20412;-67
2023/01/21 11:19:59;;;;;;;22.80;11.20;;;1.70;29.00;;;;;;6035731;23;20462;-68
2023/01/21 11:22:30;;;;;;;22.00;12.10;;;1.80;29.00;;;;;;6035130;23;20525;-67
2023/01/21 11:24:57;;;;;;;19.30;11.87;;;1.90;28.60;;;;;;6034125;23;20408;-66
2023/01/21 11:27:33;;;;;;;22.33;11.10;;;2.00;28.50;;;;;;6034316;23;20452;-68
2023/01/21 11:29:59;;;;;;;24.10;13.13;;;2.00;28.90;;;;;;6033100;23;20454;-68
2023/01/21 11:32:28;;;;;;;20.90;12.17;;;2.10;29.00;;;;;;6034107;23;20445;-63
2023/01/21 11:35:01;;;;;;;25.57;14.20;;;2.10;29.30;;;;;;6033634;23;20431;-65
2023/01/21 11:37:31;;;;;;;22.70;12.33;;;2.20;29.40;;;;;;6033522;23;20411;-63
2023/01/21 11:39:59;;;;;;;23.20;12.23;;;2.30;28.70;;;;;;6034678;23;20816;-60
2023/01/21 11:42:26;;;;;;;22.40;13.13;;;2.30;28.80;;;;;;6031717;23;20903;-61
2023/01/21 11:44:55;;;;;;;20.60;12.53;;;2.40;28.50;;;;;;6035721;23;20437;-61
2023/01/21 11:47:29;;;;;;;21.90;12.50;;;2.40;28.30;;;;;;6034315;23;20473;-62
2023/01/21 11:50:03;;;;;;;26.80;14.60;;;2.40;28.50;;;;;;6035187;23;21052;-62
2023/01/21 11:52:31;;;;;;;21.30;11.13;;;2.40;27.90;;;;;;6034050;23;20404;-69
2023/01/21 11:55:02;;;;;;;23.13;12.27;;;2.30;28.70;;;;;;6035049;23;20424;-64
2023/01/21 11:57:31;;;;;;;25.30;11.40;;;2.20;28.10;;;;;;6034545;23;20428;-61
2023/01/21 12:00:12;;;;;;;22.40;12.50;;;2.20;28.00;;;;;;6033246;23;20514;-68
2023/01/21 12:02:43;;;;;;;20.73;12.40;;;2.10;28.60;;;;;;6034040;23;20451;-71
2023/01/21 12:05:15;;;;;;;23.60;11.80;;;2.10;28.80;;;;;;6034449;23;20412;-68
2023/01/21 12:07:47;;;;;;;20.53;13.43;;;2.10;29.00;;;;;;6030196;23;20428;-62
2023/01/21 12:10:29;;;;;;;22.10;12.63;;;2.10;29.20;;;;;;6034842;23;20448;-74
2023/01/21 12:13:13;;;;;;;21.70;12.60;;;2.10;29.50;;;;;;6032001;23;20825;-74
2023/01/21 12:16:07;;;;;;;24.23;12.87;;;2.10;29.60;;;;;;6033048;23;20408;-72
2023/01/21 12:18:48;;;;;;;18.77;11.43;;;2.10;29.30;;;;;;6032676;23;20792;-72
2023/01/21 12:21:25;;;;;;;23.43;13.43;;;2.10;28.70;;;;;;6028120;23;20976;-67
2023/01/21 12:24:06;;;;;;;24.27;12.73;;;2.00;28.80;;;;;;6034695;23;20491;-66
2023/01/21 12:26:40;;;;;;;19.70;11.17;;;1.90;29.30;;;;;;6033091;23;20405;-66
2023/01/21 12:29:26;;;;;;;22.83;12.83;;;1.90;29.60;;;;;;6034394;23;21216;-66
2023/01/21 12:31:58;;;;;;;21.20;11.50;;;1.90;29.70;;;;;;6032099;23;20436;-65
2023/01/21 12:34:30;;;;;;;21.30;12.10;;;1.90;29.60;;;;;;6033588;23;20737;-65
2023/01/21 12:37:01;;;;;;;25.40;13.57;;;1.90;30.00;;;;;;6034324;23;20491;-65
2023/01/21 12:39:34;;;;;;;23.67;12.90;;;1.90;30.30;;;;;;6031317;23;20436;-64
2023/01/21 12:42:07;;;;;;;30.63;13.00;;;1.90;30.90;;;;;;6032015;23;20872;-64
2023/01/21 12:44:39;;;;;;;20.00;12.30;;;1.90;30.30;;;;;;6032967;23;20807;-65
2023/01/21 12:47:14;;;;;;;21.63;12.20;;;1.90;30.30;;;;;;6033175;23;20549;-65
2023/01/21 12:49:58;;;;;;;22.70;12.90;;;1.90;30.50;;;;;;6028026;23;20443;-62
2023/01/21 12:52:31;;;;;;;26.20;14.00;;;1.90;30.50;;;;;;6030906;23;20487;-62